createdAt,value
2019-03-28T00:02:14.031Z,8.33
2019-03-28T00:04:40.885Z,8.33
2019-03-28T00:07:08.052Z,9.35
2019-03-28T00:09:34.626Z,8.77
2019-03-28T00:12:01.255Z,6.93
2019-03-28T00:14:27.962Z,7.90
2019-03-28T00:16:54.595Z,8.50
2019-03-28T00:19:21.483Z,8.13
2019-03-28T00:21:51.841Z,9.70
2019-03-28T00:24:22.277Z,8.57
2019-03-28T00:26:50.620Z,8.23
2019-03-28T00:29:20.648Z,6.33
2019-03-28T00:31:48.995Z,7.87
2019-03-28T00:34:17.896Z,6.40
2019-03-28T00:36:44.654Z,7.70
2019-03-28T00:39:11.239Z,6.00
2019-03-28T00:41:40.406Z,6.37
2019-03-28T00:44:10.946Z,6.30
2019-03-28T00:49:25.647Z,7.97
2019-03-28T00:51:53.545Z,11.23
2019-03-28T00:54:23.376Z,8.00
2019-03-28T00:56:54.701Z,10.50
2019-03-28T00:59:22.387Z,7.77
2019-03-28T01:01:53.130Z,8.30
2019-03-28T01:04:24.161Z,9.67
2019-03-28T01:06:51.765Z,7.37
2019-03-28T01:09:22.625Z,8.53
2019-03-28T01:11:50.630Z,9.90
2019-03-28T01:14:22.549Z,10.20
2019-03-28T01:16:53.223Z,9.93
2019-03-28T01:19:38.710Z,9.43
2019-03-28T01:22:06.380Z,10.67
2019-03-28T01:24:41.388Z,12.67
2019-03-28T01:27:09.875Z,11.37
2019-03-28T01:29:40.365Z,11.00
2019-03-28T01:32:10.126Z,10.37
2019-03-28T01:34:41.932Z,8.83
2019-03-28T01:37:13.012Z,8.33
2019-03-28T01:42:29.372Z,8.93
2019-03-28T01:44:57.982Z,8.63
2019-03-28T01:47:28.158Z,8.47
2019-03-28T01:55:28.797Z,10.83
2019-03-28T01:57:56.346Z,9.07
2019-03-28T02:00:23.294Z,9.28
2019-03-28T02:02:49.994Z,7.90
2019-03-28T02:05:17.151Z,8.20
2019-03-28T02:07:43.726Z,8.27
2019-03-28T02:10:10.398Z,9.13
2019-03-28T02:12:37.297Z,7.57
2019-03-28T02:15:04.456Z,7.03
2019-03-28T02:17:31.331Z,6.58
2019-03-28T02:20:14.356Z,9.87
2019-03-28T02:22:45.402Z,10.13
2019-03-28T02:25:17.271Z,8.60
2019-03-28T02:27:44.427Z,10.57
2019-03-28T02:30:16.283Z,9.50
2019-03-28T02:32:45.733Z,8.10
2019-03-28T02:35:18.880Z,8.77
2019-03-28T02:37:48.209Z,9.20
2019-03-28T02:40:33.650Z,7.13
2019-03-28T02:43:06.299Z,9.80
2019-03-28T02:45:38.964Z,8.60
2019-03-28T02:48:07.797Z,9.93
2019-03-28T02:50:38.027Z,8.87
2019-03-28T02:53:06.721Z,10.83
2019-03-28T02:55:38.054Z,8.17
2019-03-28T02:58:06.951Z,9.68
2019-03-28T03:00:40.137Z,9.97
2019-03-28T03:03:18.778Z,9.93
2019-03-28T03:05:48.323Z,10.00
2019-03-28T03:08:17.670Z,8.13
2019-03-28T03:10:49.211Z,8.53
2019-03-28T03:13:17.879Z,10.50
2019-03-28T03:15:48.833Z,8.13
2019-03-28T03:18:15.522Z,8.87
2019-03-28T03:20:46.272Z,8.90
2019-03-28T03:23:16.816Z,9.33
2019-03-28T03:25:44.438Z,8.70
2019-03-28T03:28:14.701Z,8.47
2019-03-28T03:30:44.409Z,8.70
2019-03-28T03:33:12.548Z,8.07
2019-03-28T03:35:41.966Z,7.57
2019-03-28T03:38:11.631Z,8.47
2019-03-28T03:43:24.843Z,10.97
2019-03-28T03:45:56.064Z,6.87
2019-03-28T03:48:27.194Z,7.13
2019-03-28T03:50:54.953Z,9.40
2019-03-28T03:53:22.619Z,7.77
2019-03-28T03:55:51.753Z,7.57
2019-03-28T03:58:21.327Z,7.17
2019-03-28T04:00:52.369Z,9.77
2019-03-28T04:03:19.528Z,8.45
2019-03-28T04:05:47.887Z,8.90
2019-03-28T04:08:15.782Z,8.93
2019-03-28T04:10:46.415Z,8.20
2019-03-28T04:13:17.296Z,10.18
2019-03-28T04:15:58.269Z,7.80
2019-03-28T04:18:30.955Z,8.83
2019-03-28T04:20:57.333Z,8.03
2019-03-28T04:23:25.239Z,8.60
2019-03-28T04:25:52.138Z,8.20
2019-03-28T04:28:30.717Z,8.70
2019-03-28T04:30:47.121Z,7.50
2019-03-28T04:33:13.874Z,7.93
2019-03-28T04:35:40.914Z,8.98
2019-03-28T04:38:07.827Z,8.37
2019-03-28T04:40:34.770Z,10.50
2019-03-28T04:43:01.661Z,8.18
2019-03-28T04:45:28.328Z,11.37
2019-03-28T04:47:55.185Z,6.47
2019-03-28T04:50:21.854Z,7.80
2019-03-28T04:52:53.012Z,8.90
2019-03-28T04:55:20.042Z,10.95
2019-03-28T04:57:46.634Z,12.10
2019-03-28T05:00:13.243Z,11.67
2019-03-28T05:02:39.929Z,7.50
2019-03-28T05:05:09.799Z,10.17
2019-03-28T05:07:36.484Z,7.27
2019-03-28T05:10:03.168Z,8.40
2019-03-28T05:12:30.227Z,9.28
2019-03-28T05:14:56.801Z,8.90
2019-03-28T05:17:23.408Z,9.47
2019-03-28T05:20:07.782Z,7.80
2019-03-28T05:22:33.785Z,8.03
2019-03-28T05:25:00.733Z,7.75
2019-03-28T05:27:28.813Z,7.20
2019-03-28T05:29:55.573Z,7.57
2019-03-28T05:32:22.314Z,7.20
2019-03-28T05:34:49.215Z,9.27
2019-03-28T05:37:15.831Z,8.37
2019-03-28T05:39:42.980Z,8.43
2019-03-28T05:42:10.299Z,11.10
2019-03-28T05:44:36.908Z,9.27
2019-03-28T05:47:03.775Z,11.87
2019-03-28T05:49:30.368Z,11.30
2019-03-28T05:51:57.293Z,7.77
2019-03-28T05:54:23.950Z,11.93
2019-03-28T05:56:50.578Z,12.57
2019-03-28T05:59:17.244Z,12.83
2019-03-28T06:01:43.851Z,13.83
2019-03-28T06:04:10.815Z,16.30
2019-03-28T06:06:37.428Z,15.83
2019-03-28T06:09:04.182Z,10.67
2019-03-28T06:11:30.854Z,16.30
2019-03-28T06:13:57.939Z,13.90
2019-03-28T06:16:24.909Z,12.97
2019-03-28T06:18:51.859Z,12.17
2019-03-28T06:21:30.522Z,16.53
2019-03-28T06:23:49.912Z,13.57
2019-03-28T06:26:23.498Z,18.07
2019-03-28T06:28:50.358Z,13.57
2019-03-28T06:31:19.251Z,9.93
2019-03-28T06:33:46.772Z,12.97
2019-03-28T06:36:14.575Z,20.07
2019-03-28T06:38:44.930Z,17.93
2019-03-28T06:41:13.391Z,18.33
2019-03-28T06:43:44.509Z,24.43
2019-03-28T06:46:15.750Z,22.37
2019-03-28T06:48:44.787Z,16.17
2019-03-28T06:51:15.783Z,16.53
2019-03-28T06:53:43.804Z,18.92
2019-03-28T06:58:57.377Z,18.57
2019-03-28T07:01:24.607Z,15.10
2019-03-28T07:06:40.568Z,17.67
2019-03-28T07:09:11.015Z,21.83
2019-03-28T07:11:42.827Z,15.47
2019-03-28T07:14:09.548Z,17.93
2019-03-28T07:16:40.133Z,19.93
2019-03-28T07:19:10.844Z,20.40
2019-03-28T07:21:41.556Z,20.30
2019-03-28T07:24:09.215Z,24.50
2019-03-28T07:26:37.739Z,19.57
2019-03-28T07:29:08.084Z,14.97
2019-03-28T07:31:38.899Z,17.60
2019-03-28T07:34:06.802Z,12.80
2019-03-28T07:36:33.855Z,15.83
2019-03-28T07:39:08.800Z,18.87
2019-03-28T07:41:52.525Z,13.57
2019-03-28T07:44:26.585Z,16.10
2019-03-28T07:46:53.525Z,18.33
2019-03-28T07:49:21.523Z,14.47
2019-03-28T07:51:52.815Z,17.33
2019-03-28T07:54:23.599Z,12.07
2019-03-28T07:56:52.656Z,15.63
2019-03-28T07:59:22.717Z,17.50
2019-03-28T08:01:55.272Z,16.33
2019-03-28T08:04:21.729Z,16.70
2019-03-28T08:06:50.188Z,18.53
2019-03-28T08:09:17.711Z,13.13
2019-03-28T08:11:47.995Z,17.17
2019-03-28T08:14:13.826Z,14.13
2019-03-28T08:16:40.463Z,26.67
2019-03-28T08:19:08.100Z,13.17
2019-03-28T08:21:38.641Z,14.37
2019-03-28T08:24:05.421Z,14.97
2019-03-28T08:26:32.006Z,14.63
2019-03-28T08:28:59.354Z,13.60
2019-03-28T08:34:24.081Z,16.93
2019-03-28T08:36:51.032Z,18.80
2019-03-28T08:39:17.781Z,16.30
2019-03-28T08:41:53.955Z,16.67
2019-03-28T08:44:22.665Z,14.13
2019-03-28T08:46:49.944Z,11.68
2019-03-28T08:49:17.390Z,11.20
2019-03-28T08:51:44.015Z,17.00
2019-03-28T08:54:10.895Z,13.95
2019-03-28T08:56:37.725Z,17.23
2019-03-28T08:59:04.655Z,17.20
2019-03-28T09:04:15.643Z,16.70
2019-03-28T09:06:42.615Z,13.10
2019-03-28T09:09:09.296Z,12.73
2019-03-28T09:11:36.230Z,17.00
2019-03-28T09:14:03.871Z,19.10
2019-03-28T09:21:59.280Z,14.87
2019-03-28T09:24:26.096Z,18.98
2019-03-28T09:26:52.860Z,14.07
2019-03-28T09:29:19.489Z,9.83
2019-03-28T09:31:46.155Z,14.00
2019-03-28T09:34:12.778Z,8.17
2019-03-28T09:36:39.530Z,8.30
2019-03-28T09:39:06.244Z,9.67
2019-03-28T09:41:33.204Z,8.83
2019-03-28T09:44:00.267Z,13.50
2019-03-28T09:46:27.096Z,9.37
2019-03-28T09:48:54.006Z,10.07
2019-03-28T09:51:20.839Z,7.60
2019-03-28T09:53:47.633Z,10.23
2019-03-28T09:56:14.308Z,11.90
2019-03-28T09:58:41.236Z,9.37
2019-03-28T10:01:07.909Z,8.77
2019-03-28T10:03:34.509Z,7.63
2019-03-28T10:06:01.273Z,9.67
2019-03-28T10:08:28.103Z,10.53
2019-03-28T10:10:54.785Z,8.67
2019-03-28T10:13:21.528Z,8.70
2019-03-28T10:15:48.198Z,7.20
2019-03-28T10:18:14.783Z,9.47
2019-03-28T10:20:41.661Z,6.47
2019-03-28T10:23:08.526Z,8.17
2019-03-28T10:25:35.121Z,7.83
2019-03-28T10:28:01.761Z,9.47
2019-03-28T10:30:29.014Z,10.33
2019-03-28T10:32:56.078Z,7.42
2019-03-28T10:35:22.680Z,7.93
2019-03-28T10:40:21.598Z,6.90
2019-03-28T10:42:48.379Z,11.57
2019-03-28T10:45:15.098Z,7.97
2019-03-28T10:47:41.740Z,6.83
2019-03-28T10:50:08.369Z,7.70
2019-03-28T10:52:35.086Z,6.83
2019-03-28T10:55:02.251Z,11.20
2019-03-28T10:57:30.362Z,9.80
2019-03-28T10:59:57.756Z,5.50
2019-03-28T11:02:24.739Z,6.03
2019-03-28T11:04:51.537Z,6.43
2019-03-28T11:07:18.604Z,5.17
2019-03-28T11:09:45.529Z,7.67
2019-03-28T11:12:12.096Z,7.33
2019-03-28T11:14:38.781Z,5.40
2019-03-28T11:17:05.437Z,8.30
2019-03-28T11:19:32.026Z,6.10
2019-03-28T11:21:58.824Z,5.97
2019-03-28T11:24:25.743Z,5.60
2019-03-28T11:26:52.470Z,4.80
2019-03-28T11:29:19.112Z,4.97
2019-03-28T11:31:50.556Z,6.60
2019-03-28T11:34:14.781Z,5.23
2019-03-28T11:36:41.553Z,7.57
2019-03-28T11:39:09.512Z,4.93
2019-03-28T11:41:36.144Z,4.93
2019-03-28T11:44:02.872Z,7.20
2019-03-28T11:46:30.514Z,5.87
2019-03-28T11:48:57.237Z,3.90
2019-03-28T11:51:24.707Z,4.00
2019-03-28T11:53:52.026Z,4.00
2019-03-28T11:56:18.939Z,7.05
2019-03-28T11:58:45.686Z,4.07
2019-03-28T12:01:13.627Z,3.67
2019-03-28T12:03:40.308Z,3.40
2019-03-28T12:06:06.900Z,3.60
2019-03-28T12:08:35.147Z,5.70
2019-03-28T12:11:01.961Z,3.63
2019-03-28T12:13:28.962Z,5.53
2019-03-28T12:15:55.607Z,3.07
2019-03-28T12:18:24.903Z,3.57
2019-03-28T12:23:36.214Z,2.57
2019-03-28T12:26:03.212Z,2.63
2019-03-28T12:28:29.927Z,2.77
2019-03-28T12:30:56.846Z,2.00
2019-03-28T12:33:23.529Z,2.70
2019-03-28T12:35:50.426Z,1.90
2019-03-28T12:40:50.797Z,1.70
2019-03-28T12:43:17.474Z,1.63
2019-03-28T12:45:44.318Z,1.90
2019-03-28T12:48:11.130Z,2.33
2019-03-28T12:50:37.852Z,1.67
2019-03-28T12:53:05.177Z,1.47
2019-03-28T12:55:32.092Z,1.20
2019-03-28T12:57:58.779Z,1.90
2019-03-28T13:00:25.485Z,0.90
2019-03-28T13:03:10.223Z,1.07
2019-03-28T13:05:37.293Z,1.00
2019-03-28T13:08:04.073Z,1.00
2019-03-28T13:10:30.964Z,1.30
2019-03-28T13:13:00.741Z,0.93
2019-03-28T13:15:27.681Z,1.47
2019-03-28T13:17:54.403Z,1.40
2019-03-28T13:20:22.365Z,1.00
2019-03-28T13:22:51.917Z,1.30
2019-03-28T13:25:17.513Z,4.03
2019-03-28T13:27:44.999Z,2.40
2019-03-28T13:30:11.631Z,2.50
2019-03-28T13:32:42.180Z,4.37
2019-03-28T13:35:06.924Z,4.07
2019-03-28T13:37:33.677Z,3.67
2019-03-28T13:40:00.781Z,3.10
2019-03-28T13:42:27.527Z,3.93
2019-03-28T13:44:54.458Z,2.73
2019-03-28T13:47:21.354Z,2.30
2019-03-28T13:49:48.195Z,6.70
2019-03-28T13:52:14.879Z,9.47
2019-03-28T13:54:41.480Z,5.00
2019-03-28T13:57:08.418Z,3.80
2019-03-28T13:59:35.525Z,4.53
2019-03-28T14:02:02.461Z,3.53
2019-03-28T14:04:34.773Z,3.05
2019-03-28T14:07:01.420Z,3.87
2019-03-28T14:09:28.184Z,3.67
2019-03-28T14:11:55.206Z,3.77
2019-03-28T14:14:21.938Z,7.53
2019-03-28T14:16:49.779Z,5.37
2019-03-28T14:19:17.161Z,3.47
2019-03-28T14:21:43.805Z,4.07
2019-03-28T14:24:11.799Z,3.83
2019-03-28T14:26:40.475Z,3.08
2019-03-28T14:31:51.537Z,4.47
2019-03-28T14:34:18.279Z,6.03
2019-03-28T14:36:45.136Z,6.63
2019-03-28T14:39:12.154Z,5.95
2019-03-28T14:41:38.886Z,6.20
2019-03-28T14:44:08.570Z,4.07
2019-03-28T14:46:38.513Z,4.60
2019-03-28T14:49:05.238Z,5.07
2019-03-28T14:51:32.131Z,3.57
2019-03-28T14:53:58.766Z,3.97
2019-03-28T14:56:25.913Z,4.05
2019-03-28T14:58:52.518Z,3.97
2019-03-28T15:01:19.425Z,5.03
2019-03-28T15:03:46.329Z,3.90
2019-03-28T15:06:13.257Z,4.57
2019-03-28T15:08:40.256Z,3.62
2019-03-28T15:11:06.926Z,2.90
2019-03-28T15:13:33.795Z,3.40
2019-03-28T15:16:00.633Z,3.67
2019-03-28T15:18:27.582Z,3.23
2019-03-28T15:20:54.280Z,3.37
2019-03-28T15:23:20.980Z,3.47
2019-03-28T15:25:47.888Z,3.22
2019-03-28T15:28:14.543Z,4.50
2019-03-28T15:30:41.195Z,2.90
2019-03-28T15:33:08.142Z,2.67
2019-03-28T15:35:35.045Z,3.20
2019-03-28T15:38:01.916Z,4.37
2019-03-28T15:40:28.592Z,3.30
2019-03-28T15:42:55.237Z,8.63
2019-03-28T15:45:22.163Z,5.53
2019-03-28T15:47:51.848Z,2.77
2019-03-28T15:50:17.157Z,2.50
2019-03-28T15:52:43.819Z,3.07
2019-03-28T15:55:10.675Z,2.80
2019-03-28T15:57:37.318Z,3.23
2019-03-28T16:00:03.937Z,2.73
2019-03-28T16:02:30.614Z,2.10
2019-03-28T16:04:57.620Z,2.03
2019-03-28T16:07:24.724Z,2.77
2019-03-28T16:09:51.732Z,3.50
2019-03-28T16:12:18.424Z,3.70
2019-03-28T16:14:45.404Z,4.05
2019-03-28T16:17:12.150Z,4.13
2019-03-28T16:19:40.232Z,6.07
2019-03-28T16:22:06.910Z,9.73
2019-03-28T16:24:33.664Z,3.60
2019-03-28T16:27:00.399Z,3.27
2019-03-28T16:29:27.135Z,7.73
2019-03-28T16:31:54.080Z,3.70
2019-03-28T16:34:20.962Z,3.20
2019-03-28T16:36:48.058Z,4.60
2019-03-28T16:39:14.966Z,7.97
2019-03-28T16:41:41.615Z,3.10
2019-03-28T16:44:08.268Z,4.13
2019-03-28T16:46:35.086Z,6.30
2019-03-28T16:49:02.174Z,4.33
2019-03-28T16:51:29.862Z,8.73
2019-03-28T16:53:56.491Z,3.07
2019-03-28T16:56:23.141Z,4.03
2019-03-28T16:58:49.817Z,4.67
2019-03-28T17:01:16.525Z,5.27
2019-03-28T17:03:43.433Z,3.25
2019-03-28T17:06:10.879Z,5.27
2019-03-28T17:08:37.782Z,3.00
2019-03-28T17:11:04.385Z,7.27
2019-03-28T17:13:32.304Z,4.57
2019-03-28T17:15:59.063Z,3.33
2019-03-28T17:18:25.692Z,4.50
2019-03-28T17:20:52.709Z,6.53
2019-03-28T17:23:19.381Z,4.07
2019-03-28T17:25:45.972Z,3.50
2019-03-28T17:28:12.865Z,3.42
2019-03-28T17:30:39.769Z,3.90
2019-03-28T17:33:06.765Z,3.98
2019-03-28T17:35:33.725Z,4.08
2019-03-28T17:38:00.407Z,8.47
2019-03-28T17:40:27.061Z,7.13
2019-03-28T17:42:53.743Z,4.37
2019-03-28T17:45:20.622Z,4.83
2019-03-28T17:47:47.347Z,7.57
2019-03-28T17:50:14.523Z,7.30
2019-03-28T17:52:42.224Z,8.63
2019-03-28T17:55:09.856Z,6.90
2019-03-28T17:57:39.607Z,22.00
2019-03-28T18:03:08.131Z,19.33
2019-03-28T18:05:24.563Z,15.10
2019-03-28T18:07:53.126Z,12.57
2019-03-28T18:10:23.474Z,5.93
2019-03-28T18:12:50.370Z,11.13
2019-03-28T18:15:18.068Z,12.10
2019-03-28T18:17:45.039Z,8.80
2019-03-28T18:20:12.666Z,7.87
2019-03-28T18:22:40.576Z,6.83
2019-03-28T18:25:09.277Z,6.20
2019-03-28T18:27:36.907Z,7.17
2019-03-28T18:30:06.290Z,5.87
2019-03-28T18:32:39.152Z,6.27
2019-03-28T18:35:05.604Z,6.43
2019-03-28T18:37:38.280Z,6.20
2019-03-28T18:40:05.484Z,7.07
2019-03-28T18:42:33.260Z,7.50
2019-03-28T18:45:04.186Z,5.93
2019-03-28T18:47:31.920Z,7.00
2019-03-28T18:49:58.839Z,7.37
2019-03-28T18:52:25.552Z,6.30
2019-03-28T18:54:52.717Z,8.07
2019-03-28T18:57:20.029Z,7.20
2019-03-28T18:59:48.437Z,7.93
2019-03-28T19:02:16.871Z,6.30
2019-03-28T19:04:48.155Z,7.37
2019-03-28T19:07:18.913Z,5.53
2019-03-28T19:09:54.824Z,10.47
2019-03-28T19:12:17.647Z,11.30
2019-03-28T19:14:52.562Z,6.83
2019-03-28T19:17:22.771Z,13.17
2019-03-28T19:19:51.438Z,6.00
2019-03-28T19:22:23.293Z,8.73
2019-03-28T19:24:53.548Z,6.93
2019-03-28T19:27:21.463Z,7.35
2019-03-28T19:29:52.332Z,5.90
2019-03-28T19:32:38.098Z,8.33
2019-03-28T19:35:05.484Z,8.13
2019-03-28T19:37:39.820Z,6.15
2019-03-28T19:40:06.941Z,6.97
2019-03-28T19:42:37.728Z,8.83
2019-03-28T19:45:06.136Z,10.13
2019-03-28T19:47:34.437Z,6.17
2019-03-28T19:50:07.215Z,6.37
2019-03-28T19:52:37.163Z,5.60
2019-03-28T19:55:08.120Z,6.77
2019-03-28T19:57:35.801Z,5.90
2019-03-28T20:00:05.003Z,7.15
2019-03-28T20:02:36.122Z,5.83
2019-03-28T20:05:04.996Z,6.85
2019-03-28T20:07:35.240Z,5.60
2019-03-28T20:10:16.112Z,6.67
2019-03-28T20:12:40.667Z,9.10
2019-03-28T20:15:08.222Z,8.63
2019-03-28T20:17:39.585Z,9.00
2019-03-28T20:22:33.196Z,8.37
2019-03-28T20:25:00.942Z,6.90
2019-03-28T20:27:28.309Z,6.60
2019-03-28T20:29:55.798Z,6.53
2019-03-28T20:32:25.171Z,8.48
2019-03-28T20:40:27.471Z,7.80
2019-03-28T20:42:55.327Z,7.80
2019-03-28T20:48:13.654Z,7.53
2019-03-28T20:50:47.605Z,7.00
2019-03-28T20:53:16.562Z,7.90
2019-03-28T20:55:43.199Z,6.97
2019-03-28T20:58:16.113Z,9.47
2019-03-28T21:00:45.430Z,8.60
2019-03-28T21:03:15.928Z,9.23
2019-03-28T21:05:42.558Z,7.83
2019-03-28T21:08:09.448Z,11.73
2019-03-28T21:10:36.904Z,7.10
2019-03-28T21:13:04.521Z,8.08
2019-03-28T21:15:34.862Z,6.30
2019-03-28T21:18:01.997Z,6.87
2019-03-28T21:20:29.901Z,7.33
2019-03-28T21:22:57.937Z,7.33
2019-03-28T21:25:25.574Z,6.67
2019-03-28T21:27:52.191Z,7.13
2019-03-28T21:30:20.444Z,8.20
2019-03-28T21:32:55.200Z,8.13
2019-03-28T21:35:20.409Z,7.73
2019-03-28T21:37:47.078Z,6.70
2019-03-28T21:40:13.846Z,7.60
2019-03-28T21:42:40.578Z,6.30
2019-03-28T21:45:08.254Z,6.53
2019-03-28T21:47:36.785Z,8.30
2019-03-28T21:50:03.391Z,8.00
2019-03-28T21:52:29.978Z,7.40
2019-03-28T21:54:57.758Z,7.03
2019-03-28T21:57:25.569Z,6.43
2019-03-28T21:59:53.772Z,9.67
2019-03-28T22:02:20.731Z,6.20
2019-03-28T22:04:48.403Z,7.83
2019-03-28T22:07:15.448Z,7.28
2019-03-28T22:09:42.260Z,8.50
2019-03-28T22:12:10.583Z,8.08
2019-03-28T22:14:37.277Z,9.27
2019-03-28T22:17:03.931Z,6.53
2019-03-28T22:19:30.802Z,8.73
2019-03-28T22:24:43.143Z,9.67
2019-03-28T22:27:09.774Z,6.87
2019-03-28T22:29:36.710Z,7.55
2019-03-28T22:32:04.095Z,6.67
2019-03-28T22:34:30.845Z,7.53
2019-03-28T22:36:59.970Z,7.27
2019-03-28T22:39:26.021Z,6.27
2019-03-28T22:41:52.961Z,7.78
2019-03-28T22:44:19.583Z,7.07
2019-03-28T22:46:46.468Z,8.33
2019-03-28T22:49:13.077Z,5.87
2019-03-28T22:51:39.715Z,6.70
2019-03-28T22:54:06.623Z,7.67
2019-03-28T22:56:33.245Z,6.57
2019-03-28T22:59:00.854Z,5.60
2019-03-28T23:01:27.502Z,7.07
2019-03-28T23:03:54.211Z,5.70
2019-03-28T23:06:21.084Z,7.10
2019-03-28T23:08:47.711Z,7.70
2019-03-28T23:11:14.503Z,7.37
2019-03-28T23:13:41.135Z,6.07
2019-03-28T23:16:07.743Z,4.97
2019-03-28T23:18:34.550Z,5.58
2019-03-28T23:21:01.193Z,5.87
2019-03-28T23:23:27.786Z,5.03
2019-03-28T23:25:54.488Z,5.40
2019-03-28T23:28:21.117Z,5.97
2019-03-28T23:30:48.018Z,5.03
2019-03-28T23:33:14.830Z,5.10
2019-03-28T23:35:41.617Z,4.63
2019-03-28T23:38:08.313Z,4.50
2019-03-28T23:40:34.997Z,5.67
2019-03-28T23:43:01.873Z,4.33
2019-03-28T23:45:28.488Z,4.67
2019-03-28T23:47:55.888Z,4.28
2019-03-28T23:50:22.577Z,6.27
2019-03-28T23:52:49.431Z,4.83
2019-03-28T23:55:16.093Z,4.50
2019-03-28T23:57:42.703Z,5.40
